< < Back
Terminal Aerodrome Forecast


Current Version              Previous Versions:   1  2  3  4  5  6  7  8  9  

Terminal Aerodrome Forecast

302
FTUS42 KGSP 241720
TAFAVL
TAF
KAVL 241720Z 2418/2518 34009KT P6SM FEW250
      TEMPO 2418/2420 VRB03KT
     FM250000 19005KT P6SM BKN210
     FM250400 00000KT P6SM OVC190
     FM250800 00000KT P6SM -SHRA OVC070
     FM251200 16003KT P6SM -SHRA OVC022
     FM251500 16004KT P6SM -SHRA OVC017=

Latest METAR

928
SAUS70 KWBC 251200 RRB
MTRAVL
METAR KAVL 251154Z 18007KT 10SM -RA BKN044 BKN055 OVC080 12/09 A2989 RMK
AO2 SLP105 P0000 60004 70004 T01220094 10122 20100 56001


USA.gov is the U.S. government's official web portal to all federal, state and local government web resources and services.